sensor_id;sensor_type;location;lat;lon;timestamp;P1;durP1;ratioP1;P2;durP2;ratioP2
7191;SDS011;3637;51.494;11.958;2023-03-01T00:00:42;9.13;;;5.30;;
7191;SDS011;3637;51.494;11.958;2023-03-01T00:03:46;8.27;;;6.13;;
7191;SDS011;3637;51.494;11.958;2023-03-01T00:06:48;12.17;;;6.73;;
7191;SDS011;3637;51.494;11.958;2023-03-01T00:09:50;10.30;;;6.17;;
7191;SDS011;3637;51.494;11.958;2023-03-01T00:12:53;11.27;;;6.83;;
7191;SDS011;3637;51.494;11.958;2023-03-01T00:15:58;8.67;;;5.47;;
7191;SDS011;3637;51.494;11.958;2023-03-01T00:19:00;7.83;;;6.00;;
7191;SDS011;3637;51.494;11.958;2023-03-01T00:22:03;12.70;;;5.63;;
7191;SDS011;3637;51.494;11.958;2023-03-01T00:25:05;9.53;;;6.20;;
7191;SDS011;3637;51.494;11.958;2023-03-01T00:28:08;7.73;;;5.37;;
7191;SDS011;3637;51.494;11.958;2023-03-01T00:31:11;8.67;;;5.63;;
7191;SDS011;3637;51.494;11.958;2023-03-01T00:34:14;9.87;;;6.23;;
7191;SDS011;3637;51.494;11.958;2023-03-01T00:37:16;8.87;;;6.27;;
7191;SDS011;3637;51.494;11.958;2023-03-01T00:40:18;8.07;;;5.80;;
7191;SDS011;3637;51.494;11.958;2023-03-01T00:43:21;10.77;;;5.80;;
7191;SDS011;3637;51.494;11.958;2023-03-01T00:46:24;8.80;;;6.47;;
7191;SDS011;3637;51.494;11.958;2023-03-01T00:49:27;9.23;;;6.10;;
7191;SDS011;3637;51.494;11.958;2023-03-01T00:52:29;10.73;;;6.13;;
7191;SDS011;3637;51.494;11.958;2023-03-01T00:55:30;8.23;;;5.53;;
7191;SDS011;3637;51.494;11.958;2023-03-01T00:58:37;9.43;;;5.73;;
7191;SDS011;3637;51.494;11.958;2023-03-01T01:01:39;11.27;;;6.90;;
7191;SDS011;3637;51.494;11.958;2023-03-01T01:04:41;9.67;;;5.57;;
7191;SDS011;3637;51.494;11.958;2023-03-01T01:07:42;9.30;;;6.27;;
7191;SDS011;3637;51.494;11.958;2023-03-01T01:10:44;7.47;;;5.90;;
7191;SDS011;3637;51.494;11.958;2023-03-01T01:13:48;9.50;;;6.37;;
7191;SDS011;3637;51.494;11.958;2023-03-01T01:16:50;9.03;;;5.47;;
7191;SDS011;3637;51.494;11.958;2023-03-01T01:19:51;12.63;;;5.93;;
7191;SDS011;3637;51.494;11.958;2023-03-01T01:22:53;11.80;;;6.13;;
7191;SDS011;3637;51.494;11.958;2023-03-01T01:25:55;8.50;;;6.07;;
7191;SDS011;3637;51.494;11.958;2023-03-01T01:29:00;8.97;;;6.37;;
7191;SDS011;3637;51.494;11.958;2023-03-01T01:32:04;13.03;;;6.43;;
7191;SDS011;3637;51.494;11.958;2023-03-01T01:35:06;8.73;;;6.13;;
7191;SDS011;3637;51.494;11.958;2023-03-01T01:38:08;8.53;;;6.20;;
7191;SDS011;3637;51.494;11.958;2023-03-01T01:41:10;12.40;;;6.07;;
7191;SDS011;3637;51.494;11.958;2023-03-01T01:44:17;7.80;;;5.00;;
7191;SDS011;3637;51.494;11.958;2023-03-01T01:47:20;6.43;;;5.57;;
7191;SDS011;3637;51.494;11.958;2023-03-01T01:50:24;10.60;;;6.17;;
7191;SDS011;3637;51.494;11.958;2023-03-01T01:53:27;7.07;;;5.07;;
7191;SDS011;3637;51.494;11.958;2023-03-01T01:56:29;9.90;;;6.37;;
7191;SDS011;3637;51.494;11.958;2023-03-01T01:59:32;7.43;;;4.63;;
7191;SDS011;3637;51.494;11.958;2023-03-01T02:02:35;7.37;;;4.93;;
7191;SDS011;3637;51.494;11.958;2023-03-01T02:05:41;7.37;;;5.07;;
7191;SDS011;3637;51.494;11.958;2023-03-01T02:08:48;10.77;;;5.87;;
7191;SDS011;3637;51.494;11.958;2023-03-01T02:11:52;8.83;;;5.93;;
7191;SDS011;3637;51.494;11.958;2023-03-01T02:14:56;7.90;;;5.63;;
7191;SDS011;3637;51.494;11.958;2023-03-01T02:18:00;11.40;;;5.67;;
7191;SDS011;3637;51.494;11.958;2023-03-01T02:21:06;7.40;;;5.10;;
7191;SDS011;3637;51.494;11.958;2023-03-01T02:24:20;10.57;;;5.50;;
7191;SDS011;3637;51.494;11.958;2023-03-01T02:27:31;5.67;;;4.50;;
7191;SDS011;3637;51.494;11.958;2023-03-01T02:30:39;8.83;;;4.90;;
7191;SDS011;3637;51.494;11.958;2023-03-01T02:34:02;8.40;;;4.60;;
7191;SDS011;3637;51.494;11.958;2023-03-01T02:37:07;8.83;;;5.87;;
7191;SDS011;3637;51.494;11.958;2023-03-01T02:40:13;10.90;;;6.60;;
7191;SDS011;3637;51.494;11.958;2023-03-01T02:43:17;9.23;;;5.47;;
7191;SDS011;3637;51.494;11.958;2023-03-01T02:46:25;9.93;;;6.67;;
7191;SDS011;3637;51.494;11.958;2023-03-01T02:49:27;7.30;;;4.67;;
7191;SDS011;3637;51.494;11.958;2023-03-01T02:52:37;7.03;;;5.30;;
7191;SDS011;3637;51.494;11.958;2023-03-01T02:55:46;8.77;;;5.77;;
7191;SDS011;3637;51.494;11.958;2023-03-01T02:58:50;9.30;;;5.30;;
7191;SDS011;3637;51.494;11.958;2023-03-01T03:01:54;7.20;;;4.70;;
7191;SDS011;3637;51.494;11.958;2023-03-01T03:04:56;8.13;;;4.83;;
7191;SDS011;3637;51.494;11.958;2023-03-01T03:08:02;7.37;;;5.63;;
7191;SDS011;3637;51.494;11.958;2023-03-01T03:11:04;9.33;;;5.63;;
7191;SDS011;3637;51.494;11.958;2023-03-01T03:14:07;12.57;;;5.23;;
7191;SDS011;3637;51.494;11.958;2023-03-01T03:17:13;7.73;;;5.07;;
7191;SDS011;3637;51.494;11.958;2023-03-01T03:20:16;8.43;;;5.17;;
7191;SDS011;3637;51.494;11.958;2023-03-01T03:23:22;5.60;;;4.53;;
7191;SDS011;3637;51.494;11.958;2023-03-01T03:26:24;6.83;;;4.90;;
7191;SDS011;3637;51.494;11.958;2023-03-01T03:29:26;7.87;;;4.93;;
7191;SDS011;3637;51.494;11.958;2023-03-01T03:32:29;7.63;;;4.67;;
7191;SDS011;3637;51.494;11.958;2023-03-01T03:35:32;8.83;;;5.57;;
7191;SDS011;3637;51.494;11.958;2023-03-01T03:38:35;5.97;;;4.00;;
7191;SDS011;3637;51.494;11.958;2023-03-01T03:41:37;7.83;;;5.37;;
7191;SDS011;3637;51.494;11.958;2023-03-01T03:44:39;5.73;;;4.77;;
7191;SDS011;3637;51.494;11.958;2023-03-01T03:47:42;7.80;;;5.10;;
7191;SDS011;3637;51.494;11.958;2023-03-01T03:50:47;11.17;;;5.23;;
7191;SDS011;3637;51.494;11.958;2023-03-01T03:53:50;10.20;;;5.00;;
7191;SDS011;3637;51.494;11.958;2023-03-01T03:56:52;7.90;;;5.10;;
7191;SDS011;3637;51.494;11.958;2023-03-01T03:59:54;6.47;;;4.97;;
7191;SDS011;3637;51.494;11.958;2023-03-01T04:02:57;9.43;;;4.60;;
7191;SDS011;3637;51.494;11.958;2023-03-01T04:05:59;12.97;;;5.23;;
7191;SDS011;3637;51.494;11.958;2023-03-01T04:09:02;7.93;;;5.37;;
7191;SDS011;3637;51.494;11.958;2023-03-01T04:12:04;7.50;;;5.10;;
7191;SDS011;3637;51.494;11.958;2023-03-01T04:15:09;5.80;;;4.07;;
7191;SDS011;3637;51.494;11.958;2023-03-01T04:18:15;6.63;;;4.10;;
7191;SDS011;3637;51.494;11.958;2023-03-01T04:21:19;11.43;;;4.93;;
7191;SDS011;3637;51.494;11.958;2023-03-01T04:24:24;7.47;;;4.93;;
7191;SDS011;3637;51.494;11.958;2023-03-01T04:27:26;6.30;;;4.93;;
7191;SDS011;3637;51.494;11.958;2023-03-01T04:30:28;7.97;;;4.73;;
7191;SDS011;3637;51.494;11.958;2023-03-01T04:33:37;5.87;;;4.20;;
7191;SDS011;3637;51.494;11.958;2023-03-01T04:36:38;8.27;;;4.80;;
7191;SDS011;3637;51.494;11.958;2023-03-01T04:39:40;8.07;;;4.93;;
7191;SDS011;3637;51.494;11.958;2023-03-01T04:42:45;8.07;;;4.77;;
7191;SDS011;3637;51.494;11.958;2023-03-01T04:45:47;8.10;;;4.43;;
7191;SDS011;3637;51.494;11.958;2023-03-01T04:48:50;8.33;;;4.80;;
7191;SDS011;3637;51.494;11.958;2023-03-01T04:51:52;7.83;;;4.93;;
7191;SDS011;3637;51.494;11.958;2023-03-01T04:54:54;8.73;;;4.63;;
7191;SDS011;3637;51.494;11.958;2023-03-01T04:57:55;6.53;;;4.67;;
7191;SDS011;3637;51.494;11.958;2023-03-01T05:00:57;5.93;;;4.70;;
7191;SDS011;3637;51.494;11.958;2023-03-01T05:04:18;7.10;;;5.17;;
7191;SDS011;3637;51.494;11.958;2023-03-01T05:07:20;8.30;;;5.07;;
7191;SDS011;3637;51.494;11.958;2023-03-01T05:10:25;8.40;;;5.30;;
7191;SDS011;3637;51.494;11.958;2023-03-01T05:13:28;10.83;;;5.23;;
7191;SDS011;3637;51.494;11.958;2023-03-01T05:16:30;9.23;;;5.00;;
7191;SDS011;3637;51.494;11.958;2023-03-01T05:19:34;9.03;;;5.67;;
7191;SDS011;3637;51.494;11.958;2023-03-01T05:22:36;7.67;;;5.33;;
7191;SDS011;3637;51.494;11.958;2023-03-01T05:25:38;8.47;;;5.53;;
7191;SDS011;3637;51.494;11.958;2023-03-01T05:28:41;12.10;;;4.60;;
7191;SDS011;3637;51.494;11.958;2023-03-01T05:31:44;8.10;;;5.20;;
7191;SDS011;3637;51.494;11.958;2023-03-01T05:34:47;10.97;;;4.97;;
7191;SDS011;3637;51.494;11.958;2023-03-01T05:37:49;9.67;;;5.57;;
7191;SDS011;3637;51.494;11.958;2023-03-01T05:40:52;6.57;;;5.23;;
7191;SDS011;3637;51.494;11.958;2023-03-01T05:43:54;7.67;;;4.63;;
7191;SDS011;3637;51.494;11.958;2023-03-01T05:46:55;8.20;;;5.63;;
7191;SDS011;3637;51.494;11.958;2023-03-01T05:49:59;7.43;;;5.17;;
7191;SDS011;3637;51.494;11.958;2023-03-01T05:53:01;6.20;;;4.43;;
7191;SDS011;3637;51.494;11.958;2023-03-01T05:56:05;7.30;;;5.17;;
7191;SDS011;3637;51.494;11.958;2023-03-01T05:59:07;6.43;;;5.03;;
7191;SDS011;3637;51.494;11.958;2023-03-01T06:02:09;10.57;;;6.90;;
7191;SDS011;3637;51.494;11.958;2023-03-01T06:05:14;7.97;;;5.87;;
7191;SDS011;3637;51.494;11.958;2023-03-01T06:08:16;7.87;;;5.60;;
7191;SDS011;3637;51.494;11.958;2023-03-01T06:11:20;6.37;;;5.07;;
7191;SDS011;3637;51.494;11.958;2023-03-01T06:14:23;11.87;;;7.03;;
7191;SDS011;3637;51.494;11.958;2023-03-01T06:17:25;9.33;;;4.80;;
7191;SDS011;3637;51.494;11.958;2023-03-01T06:20:28;8.73;;;6.27;;
7191;SDS011;3637;51.494;11.958;2023-03-01T06:23:31;8.33;;;5.10;;
7191;SDS011;3637;51.494;11.958;2023-03-01T06:26:34;6.63;;;5.10;;
7191;SDS011;3637;51.494;11.958;2023-03-01T06:29:36;9.17;;;6.00;;
7191;SDS011;3637;51.494;11.958;2023-03-01T06:32:38;8.33;;;5.23;;
7191;SDS011;3637;51.494;11.958;2023-03-01T06:35:43;10.67;;;4.47;;
7191;SDS011;3637;51.494;11.958;2023-03-01T06:38:48;7.60;;;4.93;;
7191;SDS011;3637;51.494;11.958;2023-03-01T06:41:50;9.03;;;5.07;;
7191;SDS011;3637;51.494;11.958;2023-03-01T06:44:52;6.73;;;5.43;;
7191;SDS011;3637;51.494;11.958;2023-03-01T06:48:00;10.47;;;5.30;;
7191;SDS011;3637;51.494;11.958;2023-03-01T06:51:05;9.57;;;5.50;;
7191;SDS011;3637;51.494;11.958;2023-03-01T06:54:07;7.10;;;4.90;;
7191;SDS011;3637;51.494;11.958;2023-03-01T06:57:11;8.93;;;4.77;;
7191;SDS011;3637;51.494;11.958;2023-03-01T07:00:13;9.47;;;5.43;;
7191;SDS011;3637;51.494;11.958;2023-03-01T07:03:16;8.13;;;5.00;;
7191;SDS011;3637;51.494;11.958;2023-03-01T07:10:33;7.43;;;4.97;;
7191;SDS011;3637;51.494;11.958;2023-03-01T07:13:35;7.57;;;5.03;;
7191;SDS011;3637;51.494;11.958;2023-03-01T07:16:37;8.43;;;5.27;;
7191;SDS011;3637;51.494;11.958;2023-03-01T07:19:39;6.23;;;4.93;;
7191;SDS011;3637;51.494;11.958;2023-03-01T07:22:55;7.80;;;5.83;;
7191;SDS011;3637;51.494;11.958;2023-03-01T07:26:16;9.17;;;5.43;;
7191;SDS011;3637;51.494;11.958;2023-03-01T07:29:21;8.50;;;5.33;;
7191;SDS011;3637;51.494;11.958;2023-03-01T07:32:22;8.67;;;5.90;;
7191;SDS011;3637;51.494;11.958;2023-03-01T07:35:24;10.10;;;5.13;;
7191;SDS011;3637;51.494;11.958;2023-03-01T07:38:28;9.07;;;5.00;;
7191;SDS011;3637;51.494;11.958;2023-03-01T07:41:31;11.63;;;5.90;;
7191;SDS011;3637;51.494;11.958;2023-03-01T07:44:37;9.13;;;5.77;;
7191;SDS011;3637;51.494;11.958;2023-03-01T07:47:39;7.90;;;5.37;;
7191;SDS011;3637;51.494;11.958;2023-03-01T07:50:43;7.80;;;5.60;;
7191;SDS011;3637;51.494;11.958;2023-03-01T07:53:45;11.93;;;6.43;;
7191;SDS011;3637;51.494;11.958;2023-03-01T07:56:49;10.63;;;6.27;;
7191;SDS011;3637;51.494;11.958;2023-03-01T07:59:51;8.17;;;5.77;;
7191;SDS011;3637;51.494;11.958;2023-03-01T08:02:53;6.90;;;4.67;;
7191;SDS011;3637;51.494;11.958;2023-03-01T08:05:55;7.47;;;5.63;;
7191;SDS011;3637;51.494;11.958;2023-03-01T08:08:58;7.67;;;5.40;;
7191;SDS011;3637;51.494;11.958;2023-03-01T08:12:01;7.37;;;5.03;;
7191;SDS011;3637;51.494;11.958;2023-03-01T08:15:04;10.43;;;6.20;;
7191;SDS011;3637;51.494;11.958;2023-03-01T08:18:08;8.70;;;5.63;;
7191;SDS011;3637;51.494;11.958;2023-03-01T08:21:11;10.23;;;6.00;;
7191;SDS011;3637;51.494;11.958;2023-03-01T08:24:15;10.43;;;5.60;;
7191;SDS011;3637;51.494;11.958;2023-03-01T08:27:20;7.77;;;5.83;;
7191;SDS011;3637;51.494;11.958;2023-03-01T08:30:22;6.40;;;5.23;;
7191;SDS011;3637;51.494;11.958;2023-03-01T08:33:24;8.30;;;5.23;;
7191;SDS011;3637;51.494;11.958;2023-03-01T08:36:26;9.27;;;5.27;;
7191;SDS011;3637;51.494;11.958;2023-03-01T08:39:30;8.83;;;5.67;;
7191;SDS011;3637;51.494;11.958;2023-03-01T08:42:33;10.17;;;5.87;;
7191;SDS011;3637;51.494;11.958;2023-03-01T08:45:35;7.37;;;5.40;;
7191;SDS011;3637;51.494;11.958;2023-03-01T08:48:40;10.30;;;5.80;;
7191;SDS011;3637;51.494;11.958;2023-03-01T08:51:43;7.13;;;5.33;;
7191;SDS011;3637;51.494;11.958;2023-03-01T08:54:46;16.97;;;6.10;;
7191;SDS011;3637;51.494;11.958;2023-03-01T08:57:50;9.30;;;5.20;;
7191;SDS011;3637;51.494;11.958;2023-03-01T09:00:52;7.43;;;5.23;;
7191;SDS011;3637;51.494;11.958;2023-03-01T09:03:54;7.30;;;5.40;;
7191;SDS011;3637;51.494;11.958;2023-03-01T09:06:56;8.10;;;5.33;;
7191;SDS011;3637;51.494;11.958;2023-03-01T09:09:57;10.73;;;6.20;;
7191;SDS011;3637;51.494;11.958;2023-03-01T09:13:01;8.33;;;5.60;;
7191;SDS011;3637;51.494;11.958;2023-03-01T09:16:04;8.83;;;6.50;;
7191;SDS011;3637;51.494;11.958;2023-03-01T09:19:08;11.00;;;6.57;;
7191;SDS011;3637;51.494;11.958;2023-03-01T09:22:11;9.27;;;5.93;;
7191;SDS011;3637;51.494;11.958;2023-03-01T09:25:15;9.70;;;6.23;;
7191;SDS011;3637;51.494;11.958;2023-03-01T09:28:18;8.83;;;6.00;;
7191;SDS011;3637;51.494;11.958;2023-03-01T09:31:27;9.00;;;6.13;;
7191;SDS011;3637;51.494;11.958;2023-03-01T09:34:29;9.23;;;5.47;;
7191;SDS011;3637;51.494;11.958;2023-03-01T09:37:32;9.23;;;5.27;;
7191;SDS011;3637;51.494;11.958;2023-03-01T09:40:35;9.23;;;5.23;;
7191;SDS011;3637;51.494;11.958;2023-03-01T09:43:40;9.50;;;5.83;;
7191;SDS011;3637;51.494;11.958;2023-03-01T09:46:45;9.63;;;6.03;;
7191;SDS011;3637;51.494;11.958;2023-03-01T09:49:50;9.63;;;5.90;;
7191;SDS011;3637;51.494;11.958;2023-03-01T09:53:00;9.80;;;6.23;;
7191;SDS011;3637;51.494;11.958;2023-03-01T09:56:05;10.03;;;6.47;;
7191;SDS011;3637;51.494;11.958;2023-03-01T09:59:21;11.07;;;7.23;;
7191;SDS011;3637;51.494;11.958;2023-03-01T10:02:28;12.80;;;6.33;;
7191;SDS011;3637;51.494;11.958;2023-03-01T10:05:41;10.37;;;6.43;;
7191;SDS011;3637;51.494;11.958;2023-03-01T10:08:50;10.80;;;6.43;;
7191;SDS011;3637;51.494;11.958;2023-03-01T10:11:56;9.97;;;5.80;;
7191;SDS011;3637;51.494;11.958;2023-03-01T10:15:04;10.37;;;5.83;;
7191;SDS011;3637;51.494;11.958;2023-03-01T10:18:11;12.17;;;6.17;;
7191;SDS011;3637;51.494;11.958;2023-03-01T10:21:18;10.60;;;6.07;;
7191;SDS011;3637;51.494;11.958;2023-03-01T10:24:21;8.80;;;5.80;;
7191;SDS011;3637;51.494;11.958;2023-03-01T10:27:23;15.10;;;6.67;;
7191;SDS011;3637;51.494;11.958;2023-03-01T10:30:32;12.00;;;5.93;;
7191;SDS011;3637;51.494;11.958;2023-03-01T10:33:38;10.03;;;6.43;;
7191;SDS011;3637;51.494;11.958;2023-03-01T10:36:42;8.40;;;5.60;;
7191;SDS011;3637;51.494;11.958;2023-03-01T10:39:55;9.23;;;5.53;;
7191;SDS011;3637;51.494;11.958;2023-03-01T10:43:05;8.07;;;5.67;;
7191;SDS011;3637;51.494;11.958;2023-03-01T10:46:17;8.40;;;5.90;;
7191;SDS011;3637;51.494;11.958;2023-03-01T10:49:27;10.10;;;6.23;;
7191;SDS011;3637;51.494;11.958;2023-03-01T10:52:30;8.93;;;5.90;;
7191;SDS011;3637;51.494;11.958;2023-03-01T10:55:36;9.07;;;6.33;;
7191;SDS011;3637;51.494;11.958;2023-03-01T10:58:39;10.33;;;6.57;;
7191;SDS011;3637;51.494;11.958;2023-03-01T11:01:44;10.63;;;5.57;;
7191;SDS011;3637;51.494;11.958;2023-03-01T11:04:55;9.00;;;5.40;;
7191;SDS011;3637;51.494;11.958;2023-03-01T11:08:02;9.63;;;4.73;;
7191;SDS011;3637;51.494;11.958;2023-03-01T11:11:05;7.47;;;5.17;;
7191;SDS011;3637;51.494;11.958;2023-03-01T11:14:15;8.70;;;4.90;;
7191;SDS011;3637;51.494;11.958;2023-03-01T11:17:21;10.03;;;5.53;;
7191;SDS011;3637;51.494;11.958;2023-03-01T11:20:27;6.87;;;5.07;;
7191;SDS011;3637;51.494;11.958;2023-03-01T11:23:31;7.03;;;5.03;;
7191;SDS011;3637;51.494;11.958;2023-03-01T11:26:35;9.87;;;5.40;;
7191;SDS011;3637;51.494;11.958;2023-03-01T11:29:41;6.80;;;4.37;;
7191;SDS011;3637;51.494;11.958;2023-03-01T11:32:56;9.13;;;4.80;;
7191;SDS011;3637;51.494;11.958;2023-03-01T11:36:12;9.07;;;4.60;;
7191;SDS011;3637;51.494;11.958;2023-03-01T11:39:27;6.33;;;4.30;;
7191;SDS011;3637;51.494;11.958;2023-03-01T11:42:37;7.07;;;4.40;;
7191;SDS011;3637;51.494;11.958;2023-03-01T11:45:51;6.37;;;4.27;;
7191;SDS011;3637;51.494;11.958;2023-03-01T11:49:29;6.87;;;4.67;;
7191;SDS011;3637;51.494;11.958;2023-03-01T11:52:48;6.27;;;4.40;;
7191;SDS011;3637;51.494;11.958;2023-03-01T11:56:03;9.27;;;4.23;;
7191;SDS011;3637;51.494;11.958;2023-03-01T11:59:28;9.80;;;4.80;;
7191;SDS011;3637;51.494;11.958;2023-03-01T12:02:56;6.20;;;4.00;;
7191;SDS011;3637;51.494;11.958;2023-03-01T12:06:27;8.73;;;4.83;;
7191;SDS011;3637;51.494;11.958;2023-03-01T12:09:52;5.60;;;4.07;;
7191;SDS011;3637;51.494;11.958;2023-03-01T12:13:18;6.43;;;4.23;;
7191;SDS011;3637;51.494;11.958;2023-03-01T12:16:48;7.00;;;4.57;;
7191;SDS011;3637;51.494;11.958;2023-03-01T12:20:08;6.40;;;3.83;;
7191;SDS011;3637;51.494;11.958;2023-03-01T12:23:28;6.67;;;4.43;;
7191;SDS011;3637;51.494;11.958;2023-03-01T12:26:42;10.23;;;4.30;;
7191;SDS011;3637;51.494;11.958;2023-03-01T12:29:57;6.73;;;4.30;;
7191;SDS011;3637;51.494;11.958;2023-03-01T12:33:22;6.60;;;4.10;;
7191;SDS011;3637;51.494;11.958;2023-03-01T12:36:33;7.47;;;4.33;;
7191;SDS011;3637;51.494;11.958;2023-03-01T12:39:56;5.73;;;4.70;;
7191;SDS011;3637;51.494;11.958;2023-03-01T12:43:19;7.07;;;4.50;;
7191;SDS011;3637;51.494;11.958;2023-03-01T12:46:31;6.17;;;4.07;;
7191;SDS011;3637;51.494;11.958;2023-03-01T12:49:44;5.40;;;3.90;;
7191;SDS011;3637;51.494;11.958;2023-03-01T12:52:49;6.60;;;4.37;;
7191;SDS011;3637;51.494;11.958;2023-03-01T12:55:55;5.00;;;4.03;;
7191;SDS011;3637;51.494;11.958;2023-03-01T12:59:02;6.97;;;4.17;;
7191;SDS011;3637;51.494;11.958;2023-03-01T13:02:15;4.93;;;3.83;;
7191;SDS011;3637;51.494;11.958;2023-03-01T13:05:28;6.60;;;4.33;;
7191;SDS011;3637;51.494;11.958;2023-03-01T13:08:39;6.20;;;4.20;;
7191;SDS011;3637;51.494;11.958;2023-03-01T13:11:46;6.03;;;4.00;;
7191;SDS011;3637;51.494;11.958;2023-03-01T13:14:48;5.77;;;3.87;;
7191;SDS011;3637;51.494;11.958;2023-03-01T13:17:50;5.57;;;3.77;;
7191;SDS011;3637;51.494;11.958;2023-03-01T13:20:56;6.63;;;3.80;;
7191;SDS011;3637;51.494;11.958;2023-03-01T13:24:00;5.00;;;3.47;;
7191;SDS011;3637;51.494;11.958;2023-03-01T13:27:11;5.97;;;4.03;;
7191;SDS011;3637;51.494;11.958;2023-03-01T13:30:38;6.17;;;3.63;;
7191;SDS011;3637;51.494;11.958;2023-03-01T13:33:43;6.70;;;3.93;;
7191;SDS011;3637;51.494;11.958;2023-03-01T13:36:47;5.30;;;3.77;;
7191;SDS011;3637;51.494;11.958;2023-03-01T13:39:49;9.77;;;4.00;;
7191;SDS011;3637;51.494;11.958;2023-03-01T13:42:53;4.77;;;3.80;;
7191;SDS011;3637;51.494;11.958;2023-03-01T13:45:56;6.60;;;3.60;;
7191;SDS011;3637;51.494;11.958;2023-03-01T13:48:59;6.23;;;3.70;;
7191;SDS011;3637;51.494;11.958;2023-03-01T13:52:02;5.57;;;4.23;;
7191;SDS011;3637;51.494;11.958;2023-03-01T13:55:04;4.47;;;3.50;;
7191;SDS011;3637;51.494;11.958;2023-03-01T13:58:21;4.47;;;3.53;;
7191;SDS011;3637;51.494;11.958;2023-03-01T14:01:26;5.07;;;3.40;;
7191;SDS011;3637;51.494;11.958;2023-03-01T14:04:30;6.47;;;3.43;;
7191;SDS011;3637;51.494;11.958;2023-03-01T14:07:35;5.13;;;3.40;;
7191;SDS011;3637;51.494;11.958;2023-03-01T14:10:44;6.93;;;3.07;;
7191;SDS011;3637;51.494;11.958;2023-03-01T14:14:02;6.03;;;3.50;;
7191;SDS011;3637;51.494;11.958;2023-03-01T14:17:31;5.13;;;3.43;;
7191;SDS011;3637;51.494;11.958;2023-03-01T14:20:43;5.53;;;3.63;;
7191;SDS011;3637;51.494;11.958;2023-03-01T14:23:51;5.23;;;3.70;;
7191;SDS011;3637;51.494;11.958;2023-03-01T14:26:53;4.23;;;2.90;;
7191;SDS011;3637;51.494;11.958;2023-03-01T14:30:00;4.70;;;3.23;;
7191;SDS011;3637;51.494;11.958;2023-03-01T14:33:04;4.03;;;3.00;;
7191;SDS011;3637;51.494;11.958;2023-03-01T14:36:08;4.87;;;3.50;;
7191;SDS011;3637;51.494;11.958;2023-03-01T14:39:16;6.63;;;3.33;;
7191;SDS011;3637;51.494;11.958;2023-03-01T14:42:22;5.30;;;3.23;;
7191;SDS011;3637;51.494;11.958;2023-03-01T14:45:29;4.07;;;2.87;;
7191;SDS011;3637;51.494;11.958;2023-03-01T14:48:31;5.73;;;3.43;;
7191;SDS011;3637;51.494;11.958;2023-03-01T14:51:37;5.63;;;3.27;;
7191;SDS011;3637;51.494;11.958;2023-03-01T14:54:44;4.60;;;3.00;;
7191;SDS011;3637;51.494;11.958;2023-03-01T14:57:49;4.47;;;3.30;;
7191;SDS011;3637;51.494;11.958;2023-03-01T15:00:55;4.63;;;3.00;;
7191;SDS011;3637;51.494;11.958;2023-03-01T15:04:01;4.00;;;3.10;;
7191;SDS011;3637;51.494;11.958;2023-03-01T15:07:09;4.73;;;3.27;;
7191;SDS011;3637;51.494;11.958;2023-03-01T15:10:16;3.97;;;2.97;;
7191;SDS011;3637;51.494;11.958;2023-03-01T15:13:23;4.40;;;2.93;;
7191;SDS011;3637;51.494;11.958;2023-03-01T15:16:45;3.07;;;2.63;;
7191;SDS011;3637;51.494;11.958;2023-03-01T15:19:49;4.63;;;2.80;;
7191;SDS011;3637;51.494;11.958;2023-03-01T15:22:54;4.23;;;2.90;;
7191;SDS011;3637;51.494;11.958;2023-03-01T15:25:59;5.43;;;3.23;;
7191;SDS011;3637;51.494;11.958;2023-03-01T15:29:03;4.10;;;2.80;;
7191;SDS011;3637;51.494;11.958;2023-03-01T15:32:27;4.27;;;3.13;;
7191;SDS011;3637;51.494;11.958;2023-03-01T15:35:39;3.83;;;3.17;;
7191;SDS011;3637;51.494;11.958;2023-03-01T15:38:51;4.43;;;3.07;;
7191;SDS011;3637;51.494;11.958;2023-03-01T15:41:57;5.37;;;3.40;;
7191;SDS011;3637;51.494;11.958;2023-03-01T15:45:10;5.63;;;3.23;;
7191;SDS011;3637;51.494;11.958;2023-03-01T15:48:23;3.77;;;3.17;;
7191;SDS011;3637;51.494;11.958;2023-03-01T15:51:31;4.07;;;3.00;;
7191;SDS011;3637;51.494;11.958;2023-03-01T15:54:50;3.80;;;3.10;;
7191;SDS011;3637;51.494;11.958;2023-03-01T15:57:59;4.13;;;3.03;;
7191;SDS011;3637;51.494;11.958;2023-03-01T16:01:09;4.30;;;3.30;;
7191;SDS011;3637;51.494;11.958;2023-03-01T16:04:16;4.77;;;3.33;;
7191;SDS011;3637;51.494;11.958;2023-03-01T16:07:25;5.33;;;3.03;;
7191;SDS011;3637;51.494;11.958;2023-03-01T16:10:28;3.53;;;2.90;;
7191;SDS011;3637;51.494;11.958;2023-03-01T16:13:34;5.93;;;3.50;;
7191;SDS011;3637;51.494;11.958;2023-03-01T16:16:39;5.67;;;3.30;;
7191;SDS011;3637;51.494;11.958;2023-03-01T16:19:42;4.10;;;2.97;;
7191;SDS011;3637;51.494;11.958;2023-03-01T16:22:53;7.03;;;4.00;;
7191;SDS011;3637;51.494;11.958;2023-03-01T16:25:58;5.50;;;3.33;;
7191;SDS011;3637;51.494;11.958;2023-03-01T16:29:06;5.93;;;4.03;;
7191;SDS011;3637;51.494;11.958;2023-03-01T16:32:14;7.47;;;3.80;;
7191;SDS011;3637;51.494;11.958;2023-03-01T16:35:18;4.87;;;3.70;;
7191;SDS011;3637;51.494;11.958;2023-03-01T16:38:22;7.33;;;4.77;;
7191;SDS011;3637;51.494;11.958;2023-03-01T16:41:26;9.67;;;4.07;;
7191;SDS011;3637;51.494;11.958;2023-03-01T16:44:28;5.70;;;3.90;;
7191;SDS011;3637;51.494;11.958;2023-03-01T16:47:30;4.70;;;3.20;;
7191;SDS011;3637;51.494;11.958;2023-03-01T16:50:35;4.77;;;3.47;;
7191;SDS011;3637;51.494;11.958;2023-03-01T16:53:38;5.70;;;3.97;;
7191;SDS011;3637;51.494;11.958;2023-03-01T16:56:40;5.83;;;4.03;;
7191;SDS011;3637;51.494;11.958;2023-03-01T16:59:43;5.70;;;3.80;;
7191;SDS011;3637;51.494;11.958;2023-03-01T17:02:46;6.77;;;3.97;;
7191;SDS011;3637;51.494;11.958;2023-03-01T17:05:49;4.63;;;3.50;;
7191;SDS011;3637;51.494;11.958;2023-03-01T17:09:06;7.07;;;3.90;;
7191;SDS011;3637;51.494;11.958;2023-03-01T17:12:14;7.27;;;4.20;;
7191;SDS011;3637;51.494;11.958;2023-03-01T17:15:16;8.80;;;4.40;;
7191;SDS011;3637;51.494;11.958;2023-03-01T17:18:20;7.00;;;4.57;;
7191;SDS011;3637;51.494;11.958;2023-03-01T17:21:26;8.23;;;4.87;;
7191;SDS011;3637;51.494;11.958;2023-03-01T17:24:28;13.27;;;5.33;;
7191;SDS011;3637;51.494;11.958;2023-03-01T17:27:37;8.07;;;4.90;;
7191;SDS011;3637;51.494;11.958;2023-03-01T17:30:40;9.17;;;5.57;;
7191;SDS011;3637;51.494;11.958;2023-03-01T17:33:46;8.93;;;5.33;;
7191;SDS011;3637;51.494;11.958;2023-03-01T17:40:21;9.20;;;4.90;;
7191;SDS011;3637;51.494;11.958;2023-03-01T17:43:27;8.33;;;4.97;;
7191;SDS011;3637;51.494;11.958;2023-03-01T17:46:33;7.80;;;5.40;;
7191;SDS011;3637;51.494;11.958;2023-03-01T17:49:35;6.77;;;4.77;;
7191;SDS011;3637;51.494;11.958;2023-03-01T17:52:38;4.47;;;4.00;;
7191;SDS011;3637;51.494;11.958;2023-03-01T17:55:42;7.67;;;4.40;;
7191;SDS011;3637;51.494;11.958;2023-03-01T17:58:44;4.80;;;3.60;;
7191;SDS011;3637;51.494;11.958;2023-03-01T18:01:49;5.87;;;4.17;;
7191;SDS011;3637;51.494;11.958;2023-03-01T18:04:52;5.10;;;3.70;;
7191;SDS011;3637;51.494;11.958;2023-03-01T18:08:01;5.23;;;3.60;;
7191;SDS011;3637;51.494;11.958;2023-03-01T18:11:03;6.00;;;4.53;;
7191;SDS011;3637;51.494;11.958;2023-03-01T18:14:07;5.37;;;4.20;;
7191;SDS011;3637;51.494;11.958;2023-03-01T18:17:09;7.50;;;4.93;;
7191;SDS011;3637;51.494;11.958;2023-03-01T18:20:16;6.37;;;4.23;;
7191;SDS011;3637;51.494;11.958;2023-03-01T18:27:02;10.77;;;4.67;;
7191;SDS011;3637;51.494;11.958;2023-03-01T18:30:15;8.13;;;5.33;;
7191;SDS011;3637;51.494;11.958;2023-03-01T18:34:50;8.63;;;5.60;;
7191;SDS011;3637;51.494;11.958;2023-03-01T18:37:25;6.73;;;4.93;;
7191;SDS011;3637;51.494;11.958;2023-03-01T18:40:30;9.33;;;5.73;;
7191;SDS011;3637;51.494;11.958;2023-03-01T18:43:35;9.83;;;6.20;;
7191;SDS011;3637;51.494;11.958;2023-03-01T18:46:37;8.80;;;5.63;;
7191;SDS011;3637;51.494;11.958;2023-03-01T18:49:39;7.67;;;5.43;;
7191;SDS011;3637;51.494;11.958;2023-03-01T18:52:42;6.50;;;5.07;;
7191;SDS011;3637;51.494;11.958;2023-03-01T18:55:48;12.87;;;5.63;;
7191;SDS011;3637;51.494;11.958;2023-03-01T18:58:50;8.47;;;5.73;;
7191;SDS011;3637;51.494;11.958;2023-03-01T19:01:52;9.10;;;5.83;;
7191;SDS011;3637;51.494;11.958;2023-03-01T19:04:58;8.07;;;5.20;;
7191;SDS011;3637;51.494;11.958;2023-03-01T19:08:00;8.27;;;5.60;;